BKPR

Priština International Airport

Prishtina, Kosovo

BKPR 221500Z 32006KT 9999 SCT050 15/03 Q1020 NOSIG

Observed Flight Rules
Sep-22 @ 15:00 UTC (19 minutes ago)
 
Visual Flight Rules
Wind Visibility Clouds
320° at 6 knots 10,000+ meters
  • Scattered at 5,000' AGL
Temperatures Readings
Current 15°C / 59°F
Dewpoint 3°C / 37°F
Humidity 45%
Altimeter 30.12" Hg
Pressure 1020 hPa
Elevation 576
Observed Flight Rules
Sep-22 @ 15:00 UTC
(19 minutes ago)
 
VFR
Wind Visibility
320° at 6 knots 10,000+ meters
Clouds
  • Scattered at 5,000' AGL
Temperature Dewpoint
15°C / 59°F 3°C / 37°F
Humidity Altimeter Pressure
45% 30.12" Hg 1020 hPa